sensor_id;sensor_type;location;lat;lon;timestamp;P1;durP1;ratioP1;P2;durP2;ratioP2
8100;SDS011;4093;53.470;9.832;2022-08-01T00:00:05;15.45;;;13.88;;
8100;SDS011;4093;53.470;9.832;2022-08-01T00:02:33;15.35;;;13.85;;
8100;SDS011;4093;53.470;9.832;2022-08-01T00:05:00;18.27;;;16.35;;
8100;SDS011;4093;53.470;9.832;2022-08-01T00:07:26;16.55;;;14.63;;
8100;SDS011;4093;53.470;9.832;2022-08-01T00:09:53;15.68;;;14.20;;
8100;SDS011;4093;53.470;9.832;2022-08-01T00:12:20;17.25;;;15.55;;
8100;SDS011;4093;53.470;9.832;2022-08-01T00:14:47;17.45;;;15.75;;
8100;SDS011;4093;53.470;9.832;2022-08-01T00:17:14;15.10;;;13.60;;
8100;SDS011;4093;53.470;9.832;2022-08-01T00:19:41;17.00;;;15.10;;
8100;SDS011;4093;53.470;9.832;2022-08-01T00:22:07;14.82;;;12.98;;
8100;SDS011;4093;53.470;9.832;2022-08-01T00:24:34;15.15;;;13.75;;
8100;SDS011;4093;53.470;9.832;2022-08-01T00:27:00;14.82;;;13.38;;
8100;SDS011;4093;53.470;9.832;2022-08-01T00:29:27;18.63;;;14.15;;
8100;SDS011;4093;53.470;9.832;2022-08-01T00:31:55;14.25;;;12.82;;
8100;SDS011;4093;53.470;9.832;2022-08-01T00:34:21;15.15;;;13.57;;
8100;SDS011;4093;53.470;9.832;2022-08-01T00:36:48;13.55;;;12.02;;
8100;SDS011;4093;53.470;9.832;2022-08-01T00:39:14;11.55;;;10.35;;
8100;SDS011;4093;53.470;9.832;2022-08-01T00:41:41;15.93;;;14.23;;
8100;SDS011;4093;53.470;9.832;2022-08-01T00:44:08;15.77;;;13.55;;
8100;SDS011;4093;53.470;9.832;2022-08-01T00:46:34;15.20;;;13.38;;
8100;SDS011;4093;53.470;9.832;2022-08-01T00:49:02;13.65;;;12.20;;
8100;SDS011;4093;53.470;9.832;2022-08-01T00:51:29;15.15;;;13.57;;
8100;SDS011;4093;53.470;9.832;2022-08-01T00:53:56;14.05;;;12.65;;
8100;SDS011;4093;53.470;9.832;2022-08-01T00:56:24;15.90;;;14.27;;
8100;SDS011;4093;53.470;9.832;2022-08-01T00:58:52;13.77;;;12.38;;
8100;SDS011;4093;53.470;9.832;2022-08-01T01:01:19;15.63;;;12.55;;
8100;SDS011;4093;53.470;9.832;2022-08-01T01:03:46;13.80;;;11.65;;
8100;SDS011;4093;53.470;9.832;2022-08-01T01:06:23;14.35;;;12.85;;
8100;SDS011;4093;53.470;9.832;2022-08-01T01:08:55;13.07;;;11.77;;
8100;SDS011;4093;53.470;9.832;2022-08-01T01:11:31;14.18;;;12.68;;
8100;SDS011;4093;53.470;9.832;2022-08-01T01:14:10;15.25;;;12.88;;
8100;SDS011;4093;53.470;9.832;2022-08-01T01:16:43;13.23;;;11.82;;
8100;SDS011;4093;53.470;9.832;2022-08-01T01:19:13;15.80;;;13.80;;
8100;SDS011;4093;53.470;9.832;2022-08-01T01:21:53;13.93;;;12.43;;
8100;SDS011;4093;53.470;9.832;2022-08-01T01:24:28;15.20;;;12.65;;
8100;SDS011;4093;53.470;9.832;2022-08-01T01:27:06;14.38;;;12.77;;
8100;SDS011;4093;53.470;9.832;2022-08-01T01:29:46;13.27;;;11.93;;
8100;SDS011;4093;53.470;9.832;2022-08-01T01:32:17;13.35;;;11.93;;
8100;SDS011;4093;53.470;9.832;2022-08-01T01:34:47;13.70;;;12.30;;
8100;SDS011;4093;53.470;9.832;2022-08-01T01:37:17;11.90;;;10.70;;
8100;SDS011;4093;53.470;9.832;2022-08-01T01:39:46;12.88;;;11.23;;
8100;SDS011;4093;53.470;9.832;2022-08-01T01:42:15;14.38;;;11.20;;
8100;SDS011;4093;53.470;9.832;2022-08-01T01:44:43;14.38;;;11.52;;
8100;SDS011;4093;53.470;9.832;2022-08-01T01:47:12;12.23;;;10.38;;
8100;SDS011;4093;53.470;9.832;2022-08-01T01:49:39;10.70;;;9.27;;
8100;SDS011;4093;53.470;9.832;2022-08-01T01:52:10;11.80;;;10.07;;
8100;SDS011;4093;53.470;9.832;2022-08-01T01:54:39;17.02;;;11.63;;
8100;SDS011;4093;53.470;9.832;2022-08-01T01:57:08;13.10;;;10.43;;
8100;SDS011;4093;53.470;9.832;2022-08-01T01:59:38;12.32;;;11.02;;
8100;SDS011;4093;53.470;9.832;2022-08-01T02:02:07;14.95;;;9.85;;
8100;SDS011;4093;53.470;9.832;2022-08-01T02:04:37;11.07;;;9.88;;
8100;SDS011;4093;53.470;9.832;2022-08-01T02:07:07;11.00;;;9.88;;
8100;SDS011;4093;53.470;9.832;2022-08-01T02:09:35;10.32;;;9.32;;
8100;SDS011;4093;53.470;9.832;2022-08-01T02:12:04;12.38;;;9.60;;
8100;SDS011;4093;53.470;9.832;2022-08-01T02:14:32;11.45;;;10.25;;
8100;SDS011;4093;53.470;9.832;2022-08-01T02:17:00;10.82;;;9.80;;
8100;SDS011;4093;53.470;9.832;2022-08-01T02:19:29;10.60;;;9.35;;
8100;SDS011;4093;53.470;9.832;2022-08-01T02:21:59;14.27;;;10.38;;
8100;SDS011;4093;53.470;9.832;2022-08-01T02:24:28;12.30;;;10.88;;
8100;SDS011;4093;53.470;9.832;2022-08-01T02:27:02;11.00;;;9.65;;
8100;SDS011;4093;53.470;9.832;2022-08-01T02:29:36;11.23;;;9.93;;
8100;SDS011;4093;53.470;9.832;2022-08-01T02:32:06;9.95;;;8.95;;
8100;SDS011;4093;53.470;9.832;2022-08-01T02:34:34;12.90;;;10.27;;
8100;SDS011;4093;53.470;9.832;2022-08-01T02:37:03;11.25;;;9.35;;
8100;SDS011;4093;53.470;9.832;2022-08-01T02:39:31;12.48;;;9.80;;
8100;SDS011;4093;53.470;9.832;2022-08-01T02:41:59;10.85;;;9.65;;
8100;SDS011;4093;53.470;9.832;2022-08-01T02:44:30;10.90;;;9.48;;
8100;SDS011;4093;53.470;9.832;2022-08-01T02:47:01;9.50;;;8.48;;
8100;SDS011;4093;53.470;9.832;2022-08-01T02:49:30;12.52;;;8.80;;
8100;SDS011;4093;53.470;9.832;2022-08-01T02:51:59;12.10;;;9.27;;
8100;SDS011;4093;53.470;9.832;2022-08-01T02:54:31;12.38;;;9.20;;
8100;SDS011;4093;53.470;9.832;2022-08-01T02:57:00;10.95;;;8.90;;
8100;SDS011;4093;53.470;9.832;2022-08-01T02:59:28;11.50;;;8.75;;
8100;SDS011;4093;53.470;9.832;2022-08-01T03:01:58;10.35;;;8.30;;
8100;SDS011;4093;53.470;9.832;2022-08-01T03:04:26;10.73;;;8.68;;
8100;SDS011;4093;53.470;9.832;2022-08-01T03:06:53;8.85;;;8.07;;
8100;SDS011;4093;53.470;9.832;2022-08-01T03:09:23;7.70;;;7.00;;
8100;SDS011;4093;53.470;9.832;2022-08-01T03:11:54;8.38;;;7.47;;
8100;SDS011;4093;53.470;9.832;2022-08-01T03:14:24;11.48;;;7.85;;
8100;SDS011;4093;53.470;9.832;2022-08-01T03:16:52;10.55;;;7.97;;
8100;SDS011;4093;53.470;9.832;2022-08-01T03:19:20;8.80;;;6.88;;
8100;SDS011;4093;53.470;9.832;2022-08-01T03:21:50;6.88;;;6.18;;
8100;SDS011;4093;53.470;9.832;2022-08-01T03:24:17;8.05;;;6.53;;
8100;SDS011;4093;53.470;9.832;2022-08-01T03:26:45;8.52;;;6.97;;
8100;SDS011;4093;53.470;9.832;2022-08-01T03:29:16;8.82;;;7.20;;
8100;SDS011;4093;53.470;9.832;2022-08-01T03:31:43;8.45;;;7.38;;
8100;SDS011;4093;53.470;9.832;2022-08-01T03:34:12;8.10;;;6.60;;
8100;SDS011;4093;53.470;9.832;2022-08-01T03:36:49;7.05;;;6.35;;
8100;SDS011;4093;53.470;9.832;2022-08-01T03:39:22;7.90;;;6.82;;
8100;SDS011;4093;53.470;9.832;2022-08-01T03:41:54;7.40;;;6.60;;
8100;SDS011;4093;53.470;9.832;2022-08-01T03:44:27;8.85;;;7.43;;
8100;SDS011;4093;53.470;9.832;2022-08-01T03:46:58;6.85;;;5.47;;
8100;SDS011;4093;53.470;9.832;2022-08-01T03:49:29;7.38;;;6.57;;
8100;SDS011;4093;53.470;9.832;2022-08-01T03:51:58;7.30;;;6.47;;
8100;SDS011;4093;53.470;9.832;2022-08-01T03:54:29;6.28;;;5.43;;
8100;SDS011;4093;53.470;9.832;2022-08-01T03:56:58;6.47;;;4.93;;
8100;SDS011;4093;53.470;9.832;2022-08-01T03:59:28;6.68;;;5.93;;
8100;SDS011;4093;53.470;9.832;2022-08-01T04:01:56;6.80;;;5.60;;
8100;SDS011;4093;53.470;9.832;2022-08-01T04:04:24;5.50;;;5.00;;
8100;SDS011;4093;53.470;9.832;2022-08-01T04:06:51;6.25;;;5.63;;
8100;SDS011;4093;53.470;9.832;2022-08-01T04:09:19;5.90;;;5.30;;
8100;SDS011;4093;53.470;9.832;2022-08-01T04:11:46;8.95;;;5.70;;
8100;SDS011;4093;53.470;9.832;2022-08-01T04:14:13;5.50;;;5.00;;
8100;SDS011;4093;53.470;9.832;2022-08-01T04:16:41;5.88;;;4.20;;
8100;SDS011;4093;53.470;9.832;2022-08-01T04:19:08;5.35;;;4.03;;
8100;SDS011;4093;53.470;9.832;2022-08-01T04:21:34;6.45;;;4.65;;
8100;SDS011;4093;53.470;9.832;2022-08-01T04:24:03;4.60;;;3.72;;
8100;SDS011;4093;53.470;9.832;2022-08-01T04:26:36;4.20;;;3.80;;
8100;SDS011;4093;53.470;9.832;2022-08-01T04:29:05;4.95;;;4.07;;
8100;SDS011;4093;53.470;9.832;2022-08-01T04:31:34;5.32;;;3.78;;
8100;SDS011;4093;53.470;9.832;2022-08-01T04:34:04;3.75;;;3.45;;
8100;SDS011;4093;53.470;9.832;2022-08-01T04:36:33;3.63;;;3.25;;
8100;SDS011;4093;53.470;9.832;2022-08-01T04:39:02;5.00;;;3.40;;
8100;SDS011;4093;53.470;9.832;2022-08-01T04:41:31;3.95;;;3.60;;
8100;SDS011;4093;53.470;9.832;2022-08-01T04:44:00;4.28;;;3.88;;
8100;SDS011;4093;53.470;9.832;2022-08-01T04:46:28;4.45;;;4.05;;
8100;SDS011;4093;53.470;9.832;2022-08-01T04:48:56;3.70;;;3.40;;
8100;SDS011;4093;53.470;9.832;2022-08-01T04:51:24;4.72;;;4.00;;
8100;SDS011;4093;53.470;9.832;2022-08-01T04:53:51;4.68;;;4.22;;
8100;SDS011;4093;53.470;9.832;2022-08-01T04:56:17;4.38;;;3.97;;
8100;SDS011;4093;53.470;9.832;2022-08-01T04:58:45;4.70;;;4.30;;
8100;SDS011;4093;53.470;9.832;2022-08-01T05:01:13;5.00;;;4.50;;
8100;SDS011;4093;53.470;9.832;2022-08-01T05:03:40;4.95;;;4.45;;
8100;SDS011;4093;53.470;9.832;2022-08-01T05:06:07;4.80;;;4.30;;
8100;SDS011;4093;53.470;9.832;2022-08-01T05:08:35;5.03;;;4.53;;
8100;SDS011;4093;53.470;9.832;2022-08-01T05:11:02;4.50;;;4.03;;
8100;SDS011;4093;53.470;9.832;2022-08-01T05:13:28;4.90;;;4.25;;
8100;SDS011;4093;53.470;9.832;2022-08-01T05:15:55;4.88;;;4.47;;
8100;SDS011;4093;53.470;9.832;2022-08-01T05:18:22;5.03;;;4.30;;
8100;SDS011;4093;53.470;9.832;2022-08-01T05:20:48;6.43;;;4.85;;
8100;SDS011;4093;53.470;9.832;2022-08-01T05:23:15;5.30;;;4.35;;
8100;SDS011;4093;53.470;9.832;2022-08-01T05:25:44;6.10;;;4.82;;
8100;SDS011;4093;53.470;9.832;2022-08-01T05:28:10;6.35;;;3.90;;
8100;SDS011;4093;53.470;9.832;2022-08-01T05:30:38;5.50;;;3.83;;
8100;SDS011;4093;53.470;9.832;2022-08-01T05:33:05;6.32;;;3.85;;
8100;SDS011;4093;53.470;9.832;2022-08-01T05:35:31;6.80;;;3.58;;
8100;SDS011;4093;53.470;9.832;2022-08-01T05:37:58;6.00;;;3.67;;
8100;SDS011;4093;53.470;9.832;2022-08-01T05:40:24;3.88;;;3.53;;
8100;SDS011;4093;53.470;9.832;2022-08-01T05:42:52;5.53;;;3.78;;
8100;SDS011;4093;53.470;9.832;2022-08-01T05:45:19;3.85;;;3.45;;
8100;SDS011;4093;53.470;9.832;2022-08-01T05:47:46;7.55;;;3.42;;
8100;SDS011;4093;53.470;9.832;2022-08-01T05:50:12;6.13;;;3.63;;
8100;SDS011;4093;53.470;9.832;2022-08-01T05:52:39;5.88;;;3.10;;
8100;SDS011;4093;53.470;9.832;2022-08-01T05:55:06;5.60;;;3.63;;
8100;SDS011;4093;53.470;9.832;2022-08-01T05:57:34;8.18;;;3.47;;
8100;SDS011;4093;53.470;9.832;2022-08-01T06:00:02;5.97;;;3.20;;
8100;SDS011;4093;53.470;9.832;2022-08-01T06:02:29;4.70;;;3.88;;
8100;SDS011;4093;53.470;9.832;2022-08-01T06:04:56;6.50;;;3.65;;
8100;SDS011;4093;53.470;9.832;2022-08-01T06:07:23;4.63;;;3.28;;
8100;SDS011;4093;53.470;9.832;2022-08-01T06:09:49;5.65;;;3.70;;
8100;SDS011;4093;53.470;9.832;2022-08-01T06:12:16;5.35;;;3.70;;
8100;SDS011;4093;53.470;9.832;2022-08-01T06:14:42;7.45;;;3.63;;
8100;SDS011;4093;53.470;9.832;2022-08-01T06:17:10;5.13;;;3.72;;
8100;SDS011;4093;53.470;9.832;2022-08-01T06:19:37;9.18;;;3.67;;
8100;SDS011;4093;53.470;9.832;2022-08-01T06:22:03;5.07;;;3.45;;
8100;SDS011;4093;53.470;9.832;2022-08-01T06:24:30;8.38;;;3.88;;
8100;SDS011;4093;53.470;9.832;2022-08-01T06:26:57;5.90;;;3.53;;
8100;SDS011;4093;53.470;9.832;2022-08-01T06:29:23;7.13;;;3.58;;
8100;SDS011;4093;53.470;9.832;2022-08-01T06:31:50;6.40;;;3.50;;
8100;SDS011;4093;53.470;9.832;2022-08-01T06:34:18;8.05;;;3.38;;
8100;SDS011;4093;53.470;9.832;2022-08-01T06:36:46;8.60;;;4.05;;
8100;SDS011;4093;53.470;9.832;2022-08-01T06:39:13;10.65;;;3.83;;
8100;SDS011;4093;53.470;9.832;2022-08-01T06:41:40;6.88;;;3.83;;
8100;SDS011;4093;53.470;9.832;2022-08-01T06:44:07;13.55;;;4.20;;
8100;SDS011;4093;53.470;9.832;2022-08-01T06:46:34;9.13;;;3.88;;
8100;SDS011;4093;53.470;9.832;2022-08-01T06:49:02;7.88;;;3.78;;
8100;SDS011;4093;53.470;9.832;2022-08-01T06:51:30;8.77;;;3.95;;
8100;SDS011;4093;53.470;9.832;2022-08-01T06:53:57;6.28;;;3.17;;
8100;SDS011;4093;53.470;9.832;2022-08-01T06:56:24;9.68;;;3.92;;
8100;SDS011;4093;53.470;9.832;2022-08-01T06:58:51;12.70;;;3.95;;
8100;SDS011;4093;53.470;9.832;2022-08-01T07:01:18;12.30;;;4.32;;
8100;SDS011;4093;53.470;9.832;2022-08-01T07:03:44;9.35;;;3.90;;
8100;SDS011;4093;53.470;9.832;2022-08-01T07:06:11;6.93;;;3.90;;
8100;SDS011;4093;53.470;9.832;2022-08-01T07:08:41;8.75;;;3.92;;
8100;SDS011;4093;53.470;9.832;2022-08-01T07:11:08;8.05;;;3.85;;
8100;SDS011;4093;53.470;9.832;2022-08-01T07:13:34;10.80;;;4.43;;
8100;SDS011;4093;53.470;9.832;2022-08-01T07:16:01;8.55;;;3.70;;
8100;SDS011;4093;53.470;9.832;2022-08-01T07:18:28;12.30;;;4.10;;
8100;SDS011;4093;53.470;9.832;2022-08-01T07:20:55;12.25;;;3.72;;
8100;SDS011;4093;53.470;9.832;2022-08-01T07:23:22;8.73;;;4.15;;
8100;SDS011;4093;53.470;9.832;2022-08-01T07:25:50;10.50;;;4.00;;
8100;SDS011;4093;53.470;9.832;2022-08-01T07:28:17;11.25;;;4.32;;
8100;SDS011;4093;53.470;9.832;2022-08-01T07:30:44;14.98;;;4.90;;
8100;SDS011;4093;53.470;9.832;2022-08-01T07:33:11;15.73;;;5.13;;
8100;SDS011;4093;53.470;9.832;2022-08-01T07:35:38;13.60;;;4.60;;
8100;SDS011;4093;53.470;9.832;2022-08-01T07:38:05;19.55;;;5.38;;
8100;SDS011;4093;53.470;9.832;2022-08-01T07:40:32;14.70;;;5.53;;
8100;SDS011;4093;53.470;9.832;2022-08-01T07:43:00;17.88;;;5.72;;
8100;SDS011;4093;53.470;9.832;2022-08-01T07:45:27;13.63;;;5.20;;
8100;SDS011;4093;53.470;9.832;2022-08-01T07:47:54;15.63;;;5.47;;
8100;SDS011;4093;53.470;9.832;2022-08-01T07:50:21;11.57;;;5.20;;
8100;SDS011;4093;53.470;9.832;2022-08-01T07:52:47;14.48;;;4.68;;
8100;SDS011;4093;53.470;9.832;2022-08-01T07:55:16;22.42;;;5.60;;
8100;SDS011;4093;53.470;9.832;2022-08-01T07:57:42;19.13;;;6.25;;
8100;SDS011;4093;53.470;9.832;2022-08-01T08:00:11;17.02;;;6.25;;
8100;SDS011;4093;53.470;9.832;2022-08-01T08:02:38;11.85;;;5.25;;
8100;SDS011;4093;53.470;9.832;2022-08-01T08:05:06;13.07;;;5.13;;
8100;SDS011;4093;53.470;9.832;2022-08-01T08:07:33;22.15;;;5.07;;
8100;SDS011;4093;53.470;9.832;2022-08-01T08:10:00;14.38;;;4.57;;
8100;SDS011;4093;53.470;9.832;2022-08-01T08:12:27;12.25;;;5.20;;
8100;SDS011;4093;53.470;9.832;2022-08-01T08:14:54;17.77;;;4.70;;
8100;SDS011;4093;53.470;9.832;2022-08-01T08:17:22;13.57;;;4.38;;
8100;SDS011;4093;53.470;9.832;2022-08-01T08:19:49;11.55;;;3.80;;
8100;SDS011;4093;53.470;9.832;2022-08-01T08:22:15;11.00;;;4.40;;
8100;SDS011;4093;53.470;9.832;2022-08-01T08:24:43;12.25;;;3.47;;
8100;SDS011;4093;53.470;9.832;2022-08-01T08:27:10;8.70;;;3.92;;
8100;SDS011;4093;53.470;9.832;2022-08-01T08:29:36;9.02;;;3.88;;
8100;SDS011;4093;53.470;9.832;2022-08-01T08:32:03;10.50;;;3.58;;
8100;SDS011;4093;53.470;9.832;2022-08-01T08:34:32;10.32;;;4.47;;
8100;SDS011;4093;53.470;9.832;2022-08-01T08:36:59;11.98;;;4.60;;
8100;SDS011;4093;53.470;9.832;2022-08-01T08:39:26;10.52;;;4.07;;
8100;SDS011;4093;53.470;9.832;2022-08-01T08:41:54;12.20;;;4.40;;
8100;SDS011;4093;53.470;9.832;2022-08-01T08:44:22;10.98;;;4.18;;
8100;SDS011;4093;53.470;9.832;2022-08-01T08:46:51;8.65;;;4.07;;
8100;SDS011;4093;53.470;9.832;2022-08-01T08:49:20;9.43;;;3.65;;
8100;SDS011;4093;53.470;9.832;2022-08-01T08:51:51;10.88;;;3.28;;
8100;SDS011;4093;53.470;9.832;2022-08-01T08:54:19;12.10;;;4.38;;
8100;SDS011;4093;53.470;9.832;2022-08-01T08:56:49;11.70;;;4.22;;
8100;SDS011;4093;53.470;9.832;2022-08-01T08:59:17;8.95;;;3.53;;
8100;SDS011;4093;53.470;9.832;2022-08-01T09:01:45;8.55;;;3.47;;
8100;SDS011;4093;53.470;9.832;2022-08-01T09:04:12;8.23;;;3.30;;
8100;SDS011;4093;53.470;9.832;2022-08-01T09:06:39;12.68;;;4.00;;
8100;SDS011;4093;53.470;9.832;2022-08-01T09:09:08;11.88;;;3.97;;
8100;SDS011;4093;53.470;9.832;2022-08-01T09:11:35;11.73;;;3.78;;
8100;SDS011;4093;53.470;9.832;2022-08-01T09:14:04;13.55;;;4.32;;
8100;SDS011;4093;53.470;9.832;2022-08-01T09:16:32;12.95;;;4.25;;
8100;SDS011;4093;53.470;9.832;2022-08-01T09:19:06;10.07;;;3.55;;
8100;SDS011;4093;53.470;9.832;2022-08-01T09:21:34;10.27;;;3.28;;
8100;SDS011;4093;53.470;9.832;2022-08-01T09:24:02;12.88;;;4.05;;
8100;SDS011;4093;53.470;9.832;2022-08-01T09:26:32;8.45;;;3.38;;
8100;SDS011;4093;53.470;9.832;2022-08-01T09:29:02;7.40;;;3.17;;
8100;SDS011;4093;53.470;9.832;2022-08-01T09:31:39;9.63;;;3.45;;
8100;SDS011;4093;53.470;9.832;2022-08-01T09:34:07;7.68;;;3.58;;
8100;SDS011;4093;53.470;9.832;2022-08-01T09:36:45;11.65;;;3.53;;
8100;SDS011;4093;53.470;9.832;2022-08-01T09:39:19;12.13;;;4.65;;
8100;SDS011;4093;53.470;9.832;2022-08-01T09:41:48;11.82;;;3.33;;
8100;SDS011;4093;53.470;9.832;2022-08-01T09:44:16;10.60;;;3.90;;
8100;SDS011;4093;53.470;9.832;2022-08-01T09:46:48;12.75;;;3.78;;
8100;SDS011;4093;53.470;9.832;2022-08-01T09:49:26;9.73;;;3.63;;
8100;SDS011;4093;53.470;9.832;2022-08-01T09:51:54;9.05;;;3.90;;
8100;SDS011;4093;53.470;9.832;2022-08-01T09:54:27;10.55;;;3.30;;
8100;SDS011;4093;53.470;9.832;2022-08-01T09:56:59;11.00;;;3.33;;
8100;SDS011;4093;53.470;9.832;2022-08-01T09:59:34;13.40;;;3.90;;
8100;SDS011;4093;53.470;9.832;2022-08-01T10:02:02;13.25;;;5.15;;
8100;SDS011;4093;53.470;9.832;2022-08-01T10:04:29;12.13;;;4.22;;
8100;SDS011;4093;53.470;9.832;2022-08-01T10:07:04;11.77;;;3.30;;
8100;SDS011;4093;53.470;9.832;2022-08-01T10:09:33;9.82;;;3.30;;
8100;SDS011;4093;53.470;9.832;2022-08-01T10:12:03;8.55;;;3.20;;
8100;SDS011;4093;53.470;9.832;2022-08-01T10:14:30;9.90;;;3.40;;
8100;SDS011;4093;53.470;9.832;2022-08-01T10:16:59;9.90;;;3.15;;
8100;SDS011;4093;53.470;9.832;2022-08-01T10:19:27;14.45;;;3.75;;
8100;SDS011;4093;53.470;9.832;2022-08-01T10:21:55;8.32;;;3.20;;
8100;SDS011;4093;53.470;9.832;2022-08-01T10:24:24;10.52;;;2.83;;
8100;SDS011;4093;53.470;9.832;2022-08-01T10:26:52;8.25;;;2.50;;
8100;SDS011;4093;53.470;9.832;2022-08-01T10:29:26;5.68;;;2.70;;
8100;SDS011;4093;53.470;9.832;2022-08-01T10:31:53;7.25;;;2.80;;
8100;SDS011;4093;53.470;9.832;2022-08-01T10:34:20;11.02;;;3.08;;
8100;SDS011;4093;53.470;9.832;2022-08-01T10:36:47;9.05;;;2.90;;
8100;SDS011;4093;53.470;9.832;2022-08-01T10:39:15;7.93;;;2.90;;
8100;SDS011;4093;53.470;9.832;2022-08-01T10:41:44;7.88;;;3.10;;
8100;SDS011;4093;53.470;9.832;2022-08-01T10:44:12;9.10;;;2.92;;
8100;SDS011;4093;53.470;9.832;2022-08-01T10:46:42;12.52;;;2.88;;
8100;SDS011;4093;53.470;9.832;2022-08-01T10:49:13;11.02;;;3.40;;
8100;SDS011;4093;53.470;9.832;2022-08-01T10:51:43;9.98;;;2.63;;
8100;SDS011;4093;53.470;9.832;2022-08-01T10:54:11;7.25;;;2.97;;
8100;SDS011;4093;53.470;9.832;2022-08-01T10:56:39;8.73;;;2.95;;
8100;SDS011;4093;53.470;9.832;2022-08-01T10:59:08;6.38;;;2.45;;
8100;SDS011;4093;53.470;9.832;2022-08-01T11:01:35;8.85;;;2.85;;
8100;SDS011;4093;53.470;9.832;2022-08-01T11:04:05;5.57;;;2.53;;
8100;SDS011;4093;53.470;9.832;2022-08-01T11:06:40;7.70;;;2.40;;
8100;SDS011;4093;53.470;9.832;2022-08-01T11:09:16;6.20;;;2.70;;
8100;SDS011;4093;53.470;9.832;2022-08-01T11:11:59;9.43;;;2.90;;
8100;SDS011;4093;53.470;9.832;2022-08-01T11:14:29;10.45;;;2.85;;
8100;SDS011;4093;53.470;9.832;2022-08-01T11:16:57;7.15;;;2.58;;
8100;SDS011;4093;53.470;9.832;2022-08-01T11:20:08;6.75;;;2.78;;
8100;SDS011;4093;53.470;9.832;2022-08-01T11:26:06;7.72;;;3.00;;
8100;SDS011;4093;53.470;9.832;2022-08-01T11:28:37;7.15;;;2.38;;
8100;SDS011;4093;53.470;9.832;2022-08-01T11:33:52;6.90;;;2.50;;
8100;SDS011;4093;53.470;9.832;2022-08-01T11:36:20;5.30;;;2.42;;
8100;SDS011;4093;53.470;9.832;2022-08-01T11:38:48;6.10;;;2.40;;
8100;SDS011;4093;53.470;9.832;2022-08-01T11:41:35;6.40;;;2.55;;
8100;SDS011;4093;53.470;9.832;2022-08-01T11:44:03;8.00;;;2.75;;
8100;SDS011;4093;53.470;9.832;2022-08-01T11:46:47;6.40;;;2.42;;
8100;SDS011;4093;53.470;9.832;2022-08-01T11:49:25;5.95;;;2.33;;
8100;SDS011;4093;53.470;9.832;2022-08-01T11:51:58;8.10;;;2.70;;
8100;SDS011;4093;53.470;9.832;2022-08-01T11:54:31;8.02;;;2.30;;
8100;SDS011;4093;53.470;9.832;2022-08-01T11:57:00;7.45;;;2.70;;
8100;SDS011;4093;53.470;9.832;2022-08-01T11:59:28;4.85;;;2.22;;
8100;SDS011;4093;53.470;9.832;2022-08-01T12:01:54;11.20;;;3.08;;
8100;SDS011;4093;53.470;9.832;2022-08-01T12:04:21;8.98;;;2.80;;
8100;SDS011;4093;53.470;9.832;2022-08-01T12:06:48;4.70;;;2.05;;
8100;SDS011;4093;53.470;9.832;2022-08-01T12:09:16;6.63;;;2.33;;
8100;SDS011;4093;53.470;9.832;2022-08-01T12:11:44;6.93;;;2.08;;
8100;SDS011;4093;53.470;9.832;2022-08-01T12:14:15;6.80;;;2.92;;
8100;SDS011;4093;53.470;9.832;2022-08-01T12:16:48;6.18;;;2.47;;
8100;SDS011;4093;53.470;9.832;2022-08-01T12:19:19;7.95;;;2.53;;
8100;SDS011;4093;53.470;9.832;2022-08-01T12:24:34;5.85;;;2.10;;
8100;SDS011;4093;53.470;9.832;2022-08-01T12:27:01;5.43;;;2.45;;
8100;SDS011;4093;53.470;9.832;2022-08-01T12:29:34;6.00;;;2.60;;
8100;SDS011;4093;53.470;9.832;2022-08-01T12:32:04;9.57;;;2.80;;
8100;SDS011;4093;53.470;9.832;2022-08-01T12:34:47;6.78;;;2.10;;
8100;SDS011;4093;53.470;9.832;2022-08-01T12:37:13;6.07;;;2.40;;
8100;SDS011;4093;53.470;9.832;2022-08-01T12:39:41;6.43;;;2.80;;
8100;SDS011;4093;53.470;9.832;2022-08-01T12:42:08;4.55;;;2.30;;
8100;SDS011;4093;53.470;9.832;2022-08-01T12:44:35;5.55;;;2.40;;
8100;SDS011;4093;53.470;9.832;2022-08-01T12:47:03;11.02;;;2.83;;
8100;SDS011;4093;53.470;9.832;2022-08-01T12:49:32;7.38;;;2.55;;
8100;SDS011;4093;53.470;9.832;2022-08-01T12:51:59;5.53;;;2.15;;
8100;SDS011;4093;53.470;9.832;2022-08-01T12:54:26;6.40;;;2.75;;
8100;SDS011;4093;53.470;9.832;2022-08-01T12:56:54;5.72;;;2.55;;
8100;SDS011;4093;53.470;9.832;2022-08-01T12:59:22;8.63;;;2.30;;
8100;SDS011;4093;53.470;9.832;2022-08-01T13:01:50;7.22;;;2.38;;
8100;SDS011;4093;53.470;9.832;2022-08-01T13:04:18;3.50;;;2.08;;
8100;SDS011;4093;53.470;9.832;2022-08-01T13:06:45;8.45;;;2.42;;
8100;SDS011;4093;53.470;9.832;2022-08-01T13:09:12;10.82;;;2.70;;
8100;SDS011;4093;53.470;9.832;2022-08-01T13:11:40;5.80;;;2.13;;
8100;SDS011;4093;53.470;9.832;2022-08-01T13:14:09;5.72;;;2.30;;
8100;SDS011;4093;53.470;9.832;2022-08-01T13:16:45;6.35;;;2.40;;
8100;SDS011;4093;53.470;9.832;2022-08-01T13:19:13;6.78;;;2.42;;
8100;SDS011;4093;53.470;9.832;2022-08-01T13:21:42;5.65;;;2.30;;
8100;SDS011;4093;53.470;9.832;2022-08-01T13:24:24;7.63;;;2.42;;
8100;SDS011;4093;53.470;9.832;2022-08-01T13:26:53;6.85;;;2.30;;
8100;SDS011;4093;53.470;9.832;2022-08-01T13:29:30;7.22;;;2.70;;
8100;SDS011;4093;53.470;9.832;2022-08-01T13:31:57;6.15;;;2.25;;
8100;SDS011;4093;53.470;9.832;2022-08-01T13:34:32;8.57;;;2.60;;
8100;SDS011;4093;53.470;9.832;2022-08-01T13:36:59;7.18;;;2.25;;
8100;SDS011;4093;53.470;9.832;2022-08-01T13:39:27;6.45;;;2.20;;
8100;SDS011;4093;53.470;9.832;2022-08-01T13:42:06;8.38;;;2.50;;
8100;SDS011;4093;53.470;9.832;2022-08-01T13:44:34;3.80;;;2.13;;
8100;SDS011;4093;53.470;9.832;2022-08-01T13:47:01;6.15;;;2.10;;
8100;SDS011;4093;53.470;9.832;2022-08-01T13:49:28;7.40;;;2.30;;
8100;SDS011;4093;53.470;9.832;2022-08-01T13:51:55;7.07;;;2.22;;
8100;SDS011;4093;53.470;9.832;2022-08-01T13:54:22;4.43;;;2.10;;
8100;SDS011;4093;53.470;9.832;2022-08-01T13:56:49;5.53;;;2.30;;
8100;SDS011;4093;53.470;9.832;2022-08-01T13:59:16;6.15;;;2.13;;
8100;SDS011;4093;53.470;9.832;2022-08-01T14:01:44;9.07;;;2.10;;
8100;SDS011;4093;53.470;9.832;2022-08-01T14:04:11;7.55;;;2.30;;
8100;SDS011;4093;53.470;9.832;2022-08-01T14:06:37;7.70;;;2.53;;
8100;SDS011;4093;53.470;9.832;2022-08-01T14:09:04;7.70;;;2.78;;
8100;SDS011;4093;53.470;9.832;2022-08-01T14:11:31;6.53;;;2.10;;
8100;SDS011;4093;53.470;9.832;2022-08-01T14:13:58;6.70;;;2.50;;
8100;SDS011;4093;53.470;9.832;2022-08-01T14:16:24;8.25;;;2.50;;
8100;SDS011;4093;53.470;9.832;2022-08-01T14:18:52;6.28;;;2.40;;
8100;SDS011;4093;53.470;9.832;2022-08-01T14:21:19;5.43;;;2.13;;
8100;SDS011;4093;53.470;9.832;2022-08-01T14:23:46;5.55;;;1.92;;
8100;SDS011;4093;53.470;9.832;2022-08-01T14:26:12;8.68;;;2.28;;
8100;SDS011;4093;53.470;9.832;2022-08-01T14:28:39;7.03;;;2.25;;
8100;SDS011;4093;53.470;9.832;2022-08-01T14:31:05;3.78;;;1.90;;
8100;SDS011;4093;53.470;9.832;2022-08-01T14:33:32;5.43;;;2.40;;
8100;SDS011;4093;53.470;9.832;2022-08-01T14:36:00;4.68;;;2.25;;
8100;SDS011;4093;53.470;9.832;2022-08-01T14:38:27;6.05;;;2.58;;
8100;SDS011;4093;53.470;9.832;2022-08-01T14:40:54;4.65;;;1.80;;
8100;SDS011;4093;53.470;9.832;2022-08-01T14:43:20;4.43;;;2.10;;
8100;SDS011;4093;53.470;9.832;2022-08-01T14:45:47;4.55;;;2.00;;
8100;SDS011;4093;53.470;9.832;2022-08-01T14:48:14;7.20;;;2.80;;
8100;SDS011;4093;53.470;9.832;2022-08-01T14:50:41;6.10;;;2.42;;
8100;SDS011;4093;53.470;9.832;2022-08-01T14:53:09;6.85;;;2.83;;
8100;SDS011;4093;53.470;9.832;2022-08-01T14:55:36;5.15;;;2.10;;
8100;SDS011;4093;53.470;9.832;2022-08-01T14:58:03;4.03;;;1.95;;
8100;SDS011;4093;53.470;9.832;2022-08-01T15:00:29;5.10;;;2.15;;
8100;SDS011;4093;53.470;9.832;2022-08-01T15:02:56;6.35;;;2.42;;
8100;SDS011;4093;53.470;9.832;2022-08-01T15:05:22;5.60;;;2.05;;
8100;SDS011;4093;53.470;9.832;2022-08-01T15:07:49;6.38;;;2.25;;
8100;SDS011;4093;53.470;9.832;2022-08-01T15:10:17;5.13;;;2.20;;
8100;SDS011;4093;53.470;9.832;2022-08-01T15:12:43;7.63;;;2.80;;
8100;SDS011;4093;53.470;9.832;2022-08-01T15:15:10;8.20;;;2.10;;
8100;SDS011;4093;53.470;9.832;2022-08-01T15:17:36;9.90;;;2.85;;
8100;SDS011;4093;53.470;9.832;2022-08-01T15:20:04;4.70;;;2.30;;
8100;SDS011;4093;53.470;9.832;2022-08-01T15:22:32;6.85;;;2.65;;
8100;SDS011;4093;53.470;9.832;2022-08-01T15:24:59;4.35;;;2.30;;